Time;durP1;ratioP1;P1;durP2;ratioP2;P2;SDS_P1;SDS_P2;PMS_P1;PMS_P2;Temp;Humidity;BMP_temperature;BMP_pressure;BME280_temperature;BME280_humidity;BME280_pressure;Samples;Min_cycle;Max_cycle;Signal;HPM_P1;HPM_P2
2023/11/18 00:00:11;;;;;;;47.43;21.57;;;;;;;;;;5085420;28;20456;-86
2023/11/18 00:02:38;;;;;;;51.50;22.33;;;;;;;;;;5082089;28;21153;-87
2023/11/18 00:05:07;;;;;;;42.70;21.00;;;;;;;;;;5081378;28;20478;-88
2023/11/18 00:07:33;;;;;;;54.17;21.80;;;;;;;;;;5074468;28;20491;-88
2023/11/18 00:09:59;;;;;;;40.00;19.70;;;;;;;;;;5092123;28;20451;-87
2023/11/18 00:12:27;;;;;;;46.73;22.53;;;;;;;;;;5087764;28;20515;-87
2023/11/18 00:14:54;;;;;;;46.20;23.83;;;;;;;;;;5085214;28;20472;-88
2023/11/18 00:17:22;;;;;;;54.77;23.80;;;;;;;;;;5091479;28;20490;-87
2023/11/18 00:19:48;;;;;;;56.27;23.93;;;;;;;;;;5082154;28;20835;-87
2023/11/18 00:22:14;;;;;;;43.63;20.70;;;;;;;;;;5082240;28;20551;-87
2023/11/18 00:24:41;;;;;;;51.07;21.80;;;;;;;;;;5090154;28;20484;-87
2023/11/18 00:27:07;;;;;;;40.43;21.00;;;;;;;;;;5083683;28;20487;-84
2023/11/18 00:29:35;;;;;;;48.00;21.10;;;;;;;;;;5083851;28;20479;-85
2023/11/18 00:32:02;;;;;;;40.50;20.20;;;;;;;;;;5081337;28;20456;-84
2023/11/18 00:34:29;;;;;;;53.67;21.07;;;;;;;;;;5075021;28;21102;-84
2023/11/18 00:36:57;;;;;;;52.27;22.20;;;;;;;;;;5078640;28;20464;-88
2023/11/18 00:39:23;;;;;;;71.23;23.80;;;;;;;;;;5078693;28;20482;-88
2023/11/18 00:41:50;;;;;;;66.80;24.70;;;;;;;;;;5082738;28;20526;-88
2023/11/18 00:44:16;;;;;;;58.50;24.27;;;;;;;;;;5081988;28;20480;-88
2023/11/18 00:46:44;;;;;;;70.30;27.27;;;;;;;;;;5085939;28;20472;-89
2023/11/18 00:49:11;;;;;;;69.80;26.60;;;;;;;;;;5078802;28;20475;-89
2023/11/18 00:51:38;;;;;;;52.10;23.23;;;;;;;;;;5077923;28;20460;-89
2023/11/18 00:54:05;;;;;;;60.17;23.80;;;;;;;;;;5084127;28;20458;-89
2023/11/18 00:56:31;;;;;;;62.70;24.73;;;;;;;;;;5079514;28;20452;-88
2023/11/18 00:58:58;;;;;;;64.00;23.20;;;;;;;;;;5090458;28;20524;-87
2023/11/18 01:01:24;;;;;;;50.83;22.20;;;;;;;;;;5080456;28;20538;-86
2023/11/18 01:03:53;;;;;;;54.53;23.60;;;;;;;;;;5067392;28;20463;-87
2023/11/18 01:06:20;;;;;;;51.10;22.67;;;;;;;;;;5083537;28;20470;-87
2023/11/18 01:08:46;;;;;;;50.57;21.23;;;;;;;;;;5078366;28;20491;-88
2023/11/18 01:11:18;;;;;;;50.80;20.97;;;;;;;;;;5086667;28;20512;-87
2023/11/18 01:13:45;;;;;;;49.80;22.67;;;;;;;;;;5078061;28;20460;-87
2023/11/18 01:16:11;;;;;;;61.70;23.07;;;;;;;;;;5077411;28;20467;-87
2023/11/18 01:18:38;;;;;;;60.53;25.47;;;;;;;;;;5082720;28;20525;-88
2023/11/18 01:21:08;;;;;;;58.03;25.83;;;;;;;;;;5083558;28;20491;-88
2023/11/18 01:23:35;;;;;;;68.17;26.73;;;;;;;;;;5081721;28;20510;-87
2023/11/18 01:26:04;;;;;;;56.43;24.57;;;;;;;;;;5078037;28;20475;-87
2023/11/18 01:28:32;;;;;;;59.27;24.43;;;;;;;;;;5079796;28;20476;-87
2023/11/18 01:30:59;;;;;;;67.97;27.23;;;;;;;;;;5076525;28;20448;-87
2023/11/18 01:33:26;;;;;;;66.87;25.03;;;;;;;;;;5080001;28;20487;-88
2023/11/18 01:35:53;;;;;;;79.57;26.00;;;;;;;;;;5078736;28;20542;-87
2023/11/18 01:38:21;;;;;;;86.33;29.73;;;;;;;;;;5084347;28;20462;-87
2023/11/18 01:40:48;;;;;;;93.00;28.20;;;;;;;;;;5083300;28;20491;-87
2023/11/18 01:43:14;;;;;;;79.57;27.50;;;;;;;;;;5078411;28;20464;-87
2023/11/18 01:45:41;;;;;;;56.20;25.37;;;;;;;;;;5080471;28;20483;-87
2023/11/18 01:48:09;;;;;;;84.53;27.23;;;;;;;;;;5081107;28;20461;-87
2023/11/18 01:50:37;;;;;;;88.63;30.33;;;;;;;;;;5082057;28;20452;-87
2023/11/18 01:53:03;;;;;;;86.43;29.17;;;;;;;;;;5079440;28;20469;-87
2023/11/18 01:55:34;;;;;;;70.50;25.67;;;;;;;;;;5080680;28;20476;-86
2023/11/18 01:58:07;;;;;;;71.20;27.47;;;;;;;;;;5075403;28;20461;-87
2023/11/18 02:00:34;;;;;;;117.63;32.23;;;;;;;;;;5074962;28;20463;-87
2023/11/18 02:03:01;;;;;;;105.80;30.37;;;;;;;;;;5080397;28;20526;-87
2023/11/18 02:05:27;;;;;;;102.57;32.80;;;;;;;;;;5069663;28;20462;-88
2023/11/18 02:07:53;;;;;;;97.57;33.07;;;;;;;;;;5073695;28;21224;-89
2023/11/18 02:10:20;;;;;;;107.80;35.83;;;;;;;;;;5087671;28;20471;-87
2023/11/18 02:12:52;;;;;;;101.40;33.27;;;;;;;;;;5081759;28;20567;-88
2023/11/18 02:15:20;;;;;;;139.47;38.33;;;;;;;;;;5080362;28;20460;-88
2023/11/18 02:17:46;;;;;;;106.67;34.80;;;;;;;;;;5077398;28;20464;-89
2023/11/18 02:20:15;;;;;;;126.53;33.53;;;;;;;;;;5082943;28;20498;-88
2023/11/18 02:22:42;;;;;;;97.60;32.97;;;;;;;;;;5081565;28;20496;-88
2023/11/18 02:25:10;;;;;;;92.47;33.10;;;;;;;;;;5083677;28;21027;-88
2023/11/18 02:27:38;;;;;;;103.93;31.70;;;;;;;;;;5085165;28;20478;-88
2023/11/18 02:30:12;;;;;;;96.93;31.77;;;;;;;;;;5079409;28;20447;-88
2023/11/18 02:32:40;;;;;;;109.77;32.37;;;;;;;;;;5081330;28;20460;-88
2023/11/18 02:35:10;;;;;;;84.63;28.83;;;;;;;;;;5085773;28;20455;-88
2023/11/18 02:37:37;;;;;;;91.83;28.33;;;;;;;;;;5077991;28;20472;-88
2023/11/18 02:40:08;;;;;;;77.07;30.10;;;;;;;;;;5083919;28;20452;-88
2023/11/18 02:42:35;;;;;;;101.07;29.37;;;;;;;;;;5081655;28;20479;-88
2023/11/18 02:45:03;;;;;;;87.50;28.57;;;;;;;;;;5077700;28;21006;-87
2023/11/18 02:47:30;;;;;;;86.57;29.70;;;;;;;;;;5079117;28;20461;-88
2023/11/18 02:50:02;;;;;;;93.30;27.97;;;;;;;;;;5078435;28;20634;-87
2023/11/18 02:52:29;;;;;;;84.67;29.23;;;;;;;;;;5075814;28;20464;-87
2023/11/18 02:54:55;;;;;;;79.47;28.80;;;;;;;;;;5082591;28;20535;-86
2023/11/18 02:57:22;;;;;;;95.77;28.73;;;;;;;;;;5079776;28;20496;-88
2023/11/18 02:59:48;;;;;;;87.40;29.93;;;;;;;;;;5073834;28;20484;-87
2023/11/18 03:02:16;;;;;;;79.33;30.90;;;;;;;;;;5084036;28;20562;-87
2023/11/18 03:04:44;;;;;;;81.73;29.30;;;;;;;;;;5080165;28;20480;-89
2023/11/18 03:07:11;;;;;;;76.43;28.50;;;;;;;;;;5080343;28;20464;-87
2023/11/18 03:09:39;;;;;;;72.23;29.90;;;;;;;;;;5078177;28;20906;-86
2023/11/18 03:12:07;;;;;;;85.60;30.10;;;;;;;;;;5079218;28;20508;-87
2023/11/18 03:14:34;;;;;;;65.20;26.20;;;;;;;;;;5075061;28;20456;-88
2023/11/18 03:17:00;;;;;;;82.57;30.20;;;;;;;;;;5083261;28;20466;-88
2023/11/18 03:19:29;;;;;;;79.13;27.90;;;;;;;;;;5077571;28;20472;-87
2023/11/18 03:21:55;;;;;;;72.00;25.77;;;;;;;;;;5076814;28;20490;-87
2023/11/18 03:24:22;;;;;;;77.43;29.60;;;;;;;;;;5076995;28;20457;-88
2023/11/18 03:26:49;;;;;;;67.47;25.30;;;;;;;;;;5074927;28;20455;-88
2023/11/18 03:29:15;;;;;;;84.60;26.93;;;;;;;;;;5072385;28;21257;-88
2023/11/18 03:31:44;;;;;;;71.50;26.53;;;;;;;;;;5076992;28;20475;-88
2023/11/18 03:34:10;;;;;;;72.67;29.90;;;;;;;;;;5076494;28;20461;-89
2023/11/18 03:36:38;;;;;;;82.67;27.47;;;;;;;;;;5080267;28;21104;-88
2023/11/18 03:39:06;;;;;;;70.77;26.40;;;;;;;;;;5077226;28;20524;-89
2023/11/18 03:41:32;;;;;;;75.40;27.10;;;;;;;;;;5085539;28;20565;-87
2023/11/18 03:43:59;;;;;;;68.00;25.43;;;;;;;;;;5078721;28;20502;-88
2023/11/18 03:46:25;;;;;;;74.77;25.37;;;;;;;;;;5085935;28;20471;-88
2023/11/18 03:48:51;;;;;;;81.23;26.50;;;;;;;;;;5082172;28;20538;-88
2023/11/18 03:51:18;;;;;;;68.60;25.73;;;;;;;;;;5085981;28;20540;-88
2023/11/18 03:53:46;;;;;;;62.77;25.23;;;;;;;;;;5078405;28;20479;-88
2023/11/18 03:56:18;;;;;;;68.33;27.07;;;;;;;;;;5080990;28;20559;-87
2023/11/18 03:58:47;;;;;;;75.27;25.37;;;;;;;;;;5081992;28;20968;-88
2023/11/18 04:01:20;;;;;;;63.90;25.13;;;;;;;;;;5079908;28;20455;-87
2023/11/18 04:03:46;;;;;;;63.43;25.07;;;;;;;;;;5073875;28;20919;-87
2023/11/18 04:06:13;;;;;;;60.47;25.70;;;;;;;;;;5078889;28;20541;-87
2023/11/18 04:08:43;;;;;;;67.10;25.23;;;;;;;;;;5079356;28;20526;-87
2023/11/18 04:11:11;;;;;;;62.63;24.37;;;;;;;;;;5084876;28;20484;-87
2023/11/18 04:13:37;;;;;;;69.70;24.53;;;;;;;;;;5079927;28;20494;-87
2023/11/18 04:16:04;;;;;;;62.73;26.23;;;;;;;;;;5078994;28;20487;-87
2023/11/18 04:18:30;;;;;;;66.87;23.60;;;;;;;;;;5078458;28;20459;-87
2023/11/18 04:20:57;;;;;;;51.13;22.70;;;;;;;;;;5080531;28;20452;-86
2023/11/18 04:23:24;;;;;;;53.43;22.77;;;;;;;;;;5075357;28;20483;-86
2023/11/18 04:25:51;;;;;;;47.23;23.87;;;;;;;;;;5083167;28;20452;-87
2023/11/18 04:28:19;;;;;;;58.23;22.30;;;;;;;;;;5083395;28;20464;-88
2023/11/18 04:30:46;;;;;;;50.60;22.50;;;;;;;;;;5077276;28;20459;-87
2023/11/18 04:33:14;;;;;;;64.17;24.90;;;;;;;;;;5077297;28;20464;-87
2023/11/18 04:35:40;;;;;;;58.17;24.40;;;;;;;;;;5076397;28;20513;-87
2023/11/18 04:38:06;;;;;;;58.53;23.50;;;;;;;;;;5082336;28;20475;-86
2023/11/18 04:40:34;;;;;;;70.07;23.03;;;;;;;;;;5081190;28;20510;-87
2023/11/18 04:43:01;;;;;;;62.90;24.20;;;;;;;;;;5073720;28;20524;-87
2023/11/18 04:45:30;;;;;;;65.27;23.80;;;;;;;;;;5084276;28;20451;-87
2023/11/18 04:47:56;;;;;;;155.77;28.60;;;;;;;;;;5088671;28;20491;-87
2023/11/18 04:50:23;;;;;;;115.77;28.83;;;;;;;;;;5073043;28;20506;-87
2023/11/18 04:52:49;;;;;;;125.40;27.67;;;;;;;;;;5079064;28;20479;-86
2023/11/18 04:55:15;;;;;;;62.27;21.30;;;;;;;;;;5084595;28;20488;-87
2023/11/18 04:57:43;;;;;;;70.00;23.20;;;;;;;;;;5086970;28;20480;-87
2023/11/18 05:00:11;;;;;;;65.93;24.00;;;;;;;;;;5081094;28;20952;-87
2023/11/18 05:02:39;;;;;;;79.73;23.17;;;;;;;;;;5084682;28;20476;-87
2023/11/18 05:05:06;;;;;;;67.47;20.90;;;;;;;;;;5090208;28;20455;-86
2023/11/18 05:07:33;;;;;;;86.03;25.50;;;;;;;;;;5086724;28;20460;-87
2023/11/18 05:09:59;;;;;;;118.90;24.90;;;;;;;;;;5088474;28;20452;-87
2023/11/18 05:12:26;;;;;;;80.70;22.07;;;;;;;;;;5083738;28;20504;-87
2023/11/18 05:14:52;;;;;;;72.93;22.47;;;;;;;;;;5082115;28;20468;-87
2023/11/18 05:17:19;;;;;;;65.27;20.27;;;;;;;;;;5082357;28;20551;-87
2023/11/18 05:19:47;;;;;;;96.10;23.77;;;;;;;;;;5081353;28;20539;-87
2023/11/18 05:22:13;;;;;;;45.80;19.00;;;;;;;;;;5077761;28;20737;-86
2023/11/18 05:24:40;;;;;;;42.07;18.50;;;;;;;;;;5078248;28;20481;-88
2023/11/18 05:27:07;;;;;;;37.23;19.70;;;;;;;;;;5080801;28;20515;-84
2023/11/18 05:29:34;;;;;;;73.37;22.47;;;;;;;;;;5084703;28;20634;-84
2023/11/18 05:32:00;;;;;;;79.07;23.27;;;;;;;;;;5089739;28;20451;-84
2023/11/18 05:34:26;;;;;;;106.83;24.67;;;;;;;;;;5081686;28;20574;-84
2023/11/18 05:36:54;;;;;;;93.43;26.20;;;;;;;;;;5064460;28;20497;-84
2023/11/18 05:39:21;;;;;;;100.07;23.77;;;;;;;;;;5078460;28;20447;-87
2023/11/18 05:41:49;;;;;;;73.33;22.10;;;;;;;;;;5076886;28;20505;-86
2023/11/18 05:44:19;;;;;;;66.37;22.40;;;;;;;;;;5081561;28;20468;-86
2023/11/18 05:46:47;;;;;;;103.43;25.80;;;;;;;;;;5090772;28;20469;-88
2023/11/18 05:49:13;;;;;;;90.23;26.37;;;;;;;;;;5080837;28;20448;-88
2023/11/18 05:51:40;;;;;;;51.33;23.80;;;;;;;;;;5082365;28;20487;-87
2023/11/18 05:54:08;;;;;;;41.47;19.33;;;;;;;;;;5085596;28;20462;-88
2023/11/18 05:56:34;;;;;;;79.47;23.93;;;;;;;;;;5078484;28;20491;-87
2023/11/18 05:59:02;;;;;;;119.80;26.03;;;;;;;;;;5086594;28;20484;-88
2023/11/18 06:01:29;;;;;;;59.57;20.67;;;;;;;;;;5078131;28;21031;-88
2023/11/18 06:03:56;;;;;;;67.10;23.37;;;;;;;;;;5086649;28;20564;-88
2023/11/18 06:06:23;;;;;;;81.33;21.80;;;;;;;;;;5086223;28;20972;-87
2023/11/18 06:08:50;;;;;;;60.40;22.80;;;;;;;;;;5086046;28;20526;-87
2023/11/18 06:11:18;;;;;;;81.17;22.83;;;;;;;;;;5079772;28;20471;-87
2023/11/18 06:13:46;;;;;;;81.43;22.60;;;;;;;;;;5081667;28;20471;-87
2023/11/18 06:16:16;;;;;;;65.83;23.40;;;;;;;;;;5081140;28;21114;-88
2023/11/18 06:18:44;;;;;;;90.30;24.50;;;;;;;;;;5084295;28;20507;-88
2023/11/18 06:21:11;;;;;;;72.60;21.57;;;;;;;;;;5083599;28;20447;-88
2023/11/18 06:23:38;;;;;;;79.57;24.17;;;;;;;;;;5082524;28;21173;-87
2023/11/18 06:26:04;;;;;;;73.10;23.23;;;;;;;;;;5076773;28;20479;-87
2023/11/18 06:28:33;;;;;;;81.17;24.67;;;;;;;;;;5080806;28;20492;-88
2023/11/18 06:31:00;;;;;;;117.70;25.50;;;;;;;;;;5080894;28;20456;-85
2023/11/18 06:33:27;;;;;;;42.60;20.43;;;;;;;;;;5078548;28;20486;-82
2023/11/18 06:35:54;;;;;;;43.47;21.90;;;;;;;;;;5073836;28;20453;-85
2023/11/18 06:38:20;;;;;;;72.77;25.57;;;;;;;;;;5078993;28;20461;-83
2023/11/18 06:40:51;;;;;;;47.37;22.73;;;;;;;;;;5072371;28;20503;-82
2023/11/18 06:43:18;;;;;;;47.90;21.10;;;;;;;;;;5083664;28;20476;-79
2023/11/18 06:45:46;;;;;;;57.40;24.87;;;;;;;;;;5079994;28;20509;-85
2023/11/18 06:48:14;;;;;;;198.03;84.43;;;;;;;;;;5075180;28;20468;-86
2023/11/18 06:50:44;;;;;;;51.80;25.97;;;;;;;;;;5081156;28;20542;-85
2023/11/18 06:53:11;;;;;;;48.30;21.87;;;;;;;;;;5078726;28;20470;-77
2023/11/18 06:55:37;;;;;;;59.17;21.90;;;;;;;;;;5078825;28;20468;-77
2023/11/18 06:58:04;;;;;;;49.07;22.77;;;;;;;;;;5078971;28;20488;-82
2023/11/18 07:00:30;;;;;;;51.50;24.00;;;;;;;;;;5081879;28;20538;-80
2023/11/18 07:02:58;;;;;;;47.77;22.10;;;;;;;;;;5082030;28;21221;-82
2023/11/18 07:05:25;;;;;;;48.13;22.50;;;;;;;;;;5081720;28;20484;-81
2023/11/18 07:07:51;;;;;;;47.23;21.40;;;;;;;;;;5079884;28;20483;-82
2023/11/18 07:10:20;;;;;;;48.77;21.53;;;;;;;;;;5079526;28;20609;-82
2023/11/18 07:12:47;;;;;;;52.83;20.80;;;;;;;;;;5079667;28;20574;-83
2023/11/18 07:15:14;;;;;;;52.37;22.00;;;;;;;;;;5079236;28;20502;-81
2023/11/18 07:17:40;;;;;;;52.20;21.20;;;;;;;;;;5077221;28;20506;-84
2023/11/18 07:20:12;;;;;;;61.80;26.07;;;;;;;;;;5082300;28;21003;-82
2023/11/18 07:22:39;;;;;;;56.50;25.50;;;;;;;;;;5078089;28;20479;-82
2023/11/18 07:25:06;;;;;;;43.33;21.87;;;;;;;;;;5077376;28;20578;-82
2023/11/18 07:27:34;;;;;;;55.83;23.57;;;;;;;;;;5078877;28;20451;-82
2023/11/18 07:30:01;;;;;;;57.63;23.63;;;;;;;;;;5079644;28;20447;-81
2023/11/18 07:32:28;;;;;;;45.43;20.53;;;;;;;;;;5081062;28;20506;-76
2023/11/18 07:34:55;;;;;;;52.67;21.87;;;;;;;;;;5075437;28;20459;-77
2023/11/18 07:37:23;;;;;;;58.80;19.67;;;;;;;;;;5080005;28;20467;-82
2023/11/18 07:39:49;;;;;;;57.03;21.17;;;;;;;;;;5073932;28;20461;-80
2023/11/18 07:42:17;;;;;;;81.00;40.70;;;;;;;;;;5077549;28;20452;-82
2023/11/18 07:44:44;;;;;;;59.03;25.73;;;;;;;;;;5073674;28;21037;-78
2023/11/18 07:47:11;;;;;;;49.40;20.67;;;;;;;;;;5079223;28;20487;-81
2023/11/18 07:49:37;;;;;;;48.73;21.73;;;;;;;;;;5081123;28;20484;-83
2023/11/18 07:52:05;;;;;;;48.23;21.80;;;;;;;;;;5074606;28;20479;-81
2023/11/18 07:54:34;;;;;;;56.87;25.03;;;;;;;;;;5069801;28;20469;-81
2023/11/18 07:57:00;;;;;;;54.13;23.40;;;;;;;;;;5077340;28;20471;-81
2023/11/18 07:59:27;;;;;;;45.23;18.40;;;;;;;;;;5081419;28;20547;-82
2023/11/18 08:01:54;;;;;;;64.77;24.03;;;;;;;;;;5074031;28;20521;-81
2023/11/18 08:04:21;;;;;;;57.80;24.20;;;;;;;;;;5078677;28;20562;-81
2023/11/18 08:06:48;;;;;;;67.53;25.27;;;;;;;;;;5076606;28;20452;-81
2023/11/18 08:09:19;;;;;;;52.97;22.47;;;;;;;;;;5078838;28;20598;-81
2023/11/18 08:11:50;;;;;;;77.77;43.10;;;;;;;;;;5075671;28;20559;-82
2023/11/18 08:14:17;;;;;;;71.07;27.60;;;;;;;;;;5081238;28;20467;-84
2023/11/18 08:16:43;;;;;;;66.87;30.33;;;;;;;;;;5083350;28;20459;-84
2023/11/18 08:19:10;;;;;;;75.53;27.53;;;;;;;;;;5081282;28;20452;-83
2023/11/18 08:21:37;;;;;;;73.47;27.50;;;;;;;;;;5079252;28;20452;-85
2023/11/18 08:24:04;;;;;;;57.20;25.00;;;;;;;;;;5076752;28;20897;-84
2023/11/18 08:26:31;;;;;;;68.37;26.33;;;;;;;;;;5059150;28;20463;-83
2023/11/18 08:28:59;;;;;;;61.00;24.50;;;;;;;;;;5078496;28;20509;-84
2023/11/18 08:31:25;;;;;;;64.00;29.07;;;;;;;;;;5071872;28;20555;-86
2023/11/18 08:33:54;;;;;;;56.73;27.13;;;;;;;;;;5076274;28;20492;-86
2023/11/18 08:36:20;;;;;;;58.37;26.80;;;;;;;;;;5082286;28;20460;-87
2023/11/18 08:38:47;;;;;;;63.87;26.30;;;;;;;;;;5088667;28;20440;-87
2023/11/18 08:41:13;;;;;;;63.57;26.50;;;;;;;;;;5083147;28;21458;-84
2023/11/18 08:43:40;;;;;;;45.20;20.70;;;;;;;;;;5082140;28;20476;-86
2023/11/18 08:46:09;;;;;;;60.50;24.70;;;;;;;;;;5086010;28;20456;-83
2023/11/18 08:48:36;;;;;;;54.87;25.87;;;;;;;;;;5076789;28;20486;-82
2023/11/18 08:51:02;;;;;;;57.37;27.20;;;;;;;;;;5082657;28;20479;-83
2023/11/18 08:53:29;;;;;;;67.83;28.50;;;;;;;;;;5082709;28;20455;-83
2023/11/18 08:55:55;;;;;;;60.37;28.87;;;;;;;;;;5080921;28;20502;-84
2023/11/18 08:58:22;;;;;;;72.80;30.67;;;;;;;;;;5079248;28;20514;-83
2023/11/18 09:00:54;;;;;;;95.40;37.93;;;;;;;;;;5080602;28;20448;-84
2023/11/18 09:03:25;;;;;;;73.73;31.70;;;;;;;;;;5081991;28;20518;-85
2023/11/18 09:05:57;;;;;;;67.70;30.70;;;;;;;;;;5078197;28;20581;-83
2023/11/18 09:08:25;;;;;;;84.77;31.97;;;;;;;;;;5089897;28;20543;-83
2023/11/18 09:10:53;;;;;;;75.13;33.20;;;;;;;;;;5082415;28;21827;-84
2023/11/18 09:13:20;;;;;;;60.90;29.83;;;;;;;;;;5083271;28;20458;-83
2023/11/18 09:15:47;;;;;;;54.00;28.10;;;;;;;;;;5075654;28;20459;-84
2023/11/18 09:18:13;;;;;;;47.00;26.97;;;;;;;;;;5074783;28;20460;-85
2023/11/18 09:20:42;;;;;;;45.43;24.73;;;;;;;;;;5085953;28;20966;-86
2023/11/18 09:23:09;;;;;;;39.93;24.33;;;;;;;;;;5077698;28;20496;-84
2023/11/18 09:25:36;;;;;;;41.03;23.27;;;;;;;;;;5082698;28;20452;-86
2023/11/18 09:28:03;;;;;;;36.03;21.20;;;;;;;;;;5081796;28;20459;-86
2023/11/18 09:30:29;;;;;;;26.53;17.93;;;;;;;;;;5082816;28;20458;-83
2023/11/18 09:32:55;;;;;;;25.67;18.97;;;;;;;;;;5083430;28;20520;-84
2023/11/18 09:35:22;;;;;;;34.83;19.60;;;;;;;;;;5082779;28;20480;-84
2023/11/18 09:37:52;;;;;;;22.30;16.80;;;;;;;;;;5080744;28;20464;-82
2023/11/18 09:40:23;;;;;;;24.70;17.70;;;;;;;;;;5082959;28;20462;-85
2023/11/18 09:42:50;;;;;;;29.10;15.53;;;;;;;;;;5080544;28;20453;-84
2023/11/18 09:45:20;;;;;;;23.87;16.27;;;;;;;;;;5081878;28;20472;-84
2023/11/18 09:47:47;;;;;;;22.10;15.47;;;;;;;;;;5080685;28;20467;-82
2023/11/18 09:50:17;;;;;;;26.63;16.93;;;;;;;;;;5076592;28;20463;-80
2023/11/18 09:52:51;;;;;;;25.90;16.40;;;;;;;;;;5078040;28;20949;-81
2023/11/18 09:55:26;;;;;;;21.40;15.40;;;;;;;;;;5074023;28;20475;-80
2023/11/18 09:57:57;;;;;;;19.30;15.30;;;;;;;;;;5077400;28;20455;-82
2023/11/18 10:00:27;;;;;;;20.07;14.00;;;;;;;;;;5078186;28;20523;-82
2023/11/18 10:02:56;;;;;;;21.83;13.27;;;;;;;;;;5078805;28;20448;-82
2023/11/18 10:05:26;;;;;;;23.33;14.37;;;;;;;;;;5080796;28;20487;-82
2023/11/18 10:07:52;;;;;;;24.30;17.40;;;;;;;;;;5078761;28;20464;-84
2023/11/18 10:10:20;;;;;;;22.77;15.40;;;;;;;;;;5079437;28;20575;-84
2023/11/18 10:12:52;;;;;;;24.43;16.60;;;;;;;;;;5079398;28;20578;-83
2023/11/18 10:15:19;;;;;;;22.60;15.67;;;;;;;;;;5078117;28;20459;-81
2023/11/18 10:17:55;;;;;;;18.77;13.00;;;;;;;;;;5079240;28;20464;-83
2023/11/18 10:20:25;;;;;;;27.80;16.63;;;;;;;;;;5080352;28;20460;-83
2023/11/18 10:23:06;;;;;;;21.80;13.50;;;;;;;;;;5080888;28;20454;-81
2023/11/18 10:25:34;;;;;;;24.97;13.77;;;;;;;;;;5072654;28;20531;-81
2023/11/18 10:28:03;;;;;;;28.70;17.73;;;;;;;;;;5080641;28;20498;-81
2023/11/18 10:30:31;;;;;;;24.13;15.37;;;;;;;;;;5078662;28;20467;-81
2023/11/18 10:33:05;;;;;;;20.97;14.67;;;;;;;;;;5073479;28;20531;-82
2023/11/18 10:35:32;;;;;;;29.00;16.13;;;;;;;;;;5078215;28;20498;-80
2023/11/18 10:38:00;;;;;;;21.27;14.60;;;;;;;;;;5078943;28;20483;-81
2023/11/18 10:40:27;;;;;;;26.70;18.80;;;;;;;;;;5071631;28;20544;-79
2023/11/18 10:42:53;;;;;;;27.20;21.30;;;;;;;;;;5079467;28;20976;-82
2023/11/18 10:45:27;;;;;;;18.13;12.93;;;;;;;;;;5076345;28;21034;-81
2023/11/18 10:47:55;;;;;;;18.00;12.50;;;;;;;;;;5077506;28;20470;-82
2023/11/18 10:50:22;;;;;;;18.07;13.13;;;;;;;;;;5079231;28;20452;-82
2023/11/18 10:52:48;;;;;;;20.50;13.63;;;;;;;;;;5082038;28;20450;-82
2023/11/18 10:55:19;;;;;;;16.33;12.60;;;;;;;;;;5086431;28;20897;-84
2023/11/18 10:57:45;;;;;;;18.50;13.83;;;;;;;;;;5079748;28;20456;-83
2023/11/18 11:00:14;;;;;;;18.07;13.50;;;;;;;;;;5078896;28;20477;-86
2023/11/18 11:02:42;;;;;;;17.67;11.90;;;;;;;;;;5069903;28;20450;-86
2023/11/18 11:05:15;;;;;;;16.13;12.83;;;;;;;;;;5076576;28;20492;-83
2023/11/18 11:07:42;;;;;;;16.33;12.63;;;;;;;;;;5081171;28;20487;-84
2023/11/18 11:10:10;;;;;;;18.23;12.90;;;;;;;;;;5071357;28;20491;-85
2023/11/18 11:12:39;;;;;;;16.87;13.10;;;;;;;;;;5073699;28;20510;-86
2023/11/18 11:15:13;;;;;;;20.03;13.10;;;;;;;;;;5067583;28;20467;-85
2023/11/18 11:17:42;;;;;;;20.23;16.30;;;;;;;;;;5072421;28;20531;-85
2023/11/18 11:20:17;;;;;;;15.20;11.40;;;;;;;;;;5078699;28;20469;-84
2023/11/18 11:22:47;;;;;;;18.13;14.17;;;;;;;;;;5073914;28;20483;-84
2023/11/18 11:25:21;;;;;;;17.30;14.87;;;;;;;;;;5083663;28;20487;-84
2023/11/18 11:27:53;;;;;;;16.17;13.83;;;;;;;;;;5072052;28;20936;-83
2023/11/18 11:30:24;;;;;;;17.83;15.07;;;;;;;;;;5076067;28;20448;-85
2023/11/18 11:32:53;;;;;;;16.20;14.43;;;;;;;;;;5076625;28;20465;-84
2023/11/18 11:35:29;;;;;;;19.37;14.40;;;;;;;;;;5070729;28;20449;-85
2023/11/18 11:38:02;;;;;;;15.57;13.97;;;;;;;;;;5081297;28;20491;-85
2023/11/18 11:40:29;;;;;;;16.33;14.37;;;;;;;;;;5072379;28;20479;-84
2023/11/18 11:42:56;;;;;;;23.23;12.63;;;;;;;;;;5060920;28;20507;-84
2023/11/18 11:45:28;;;;;;;15.07;13.47;;;;;;;;;;5068115;28;20519;-85
2023/11/18 11:48:12;;;;;;;17.67;13.23;;;;;;;;;;5085173;28;20474;-84
2023/11/18 11:50:43;;;;;;;16.77;14.00;;;;;;;;;;5083668;28;20448;-84
2023/11/18 11:53:16;;;;;;;18.20;12.77;;;;;;;;;;5085870;28;20464;-83
2023/11/18 11:55:51;;;;;;;17.40;13.33;;;;;;;;;;5078796;28;20512;-83
2023/11/18 11:58:27;;;;;;;17.37;14.20;;;;;;;;;;5082827;28;21067;-85
2023/11/18 12:00:54;;;;;;;16.13;11.33;;;;;;;;;;5079006;28;20483;-83
2023/11/18 12:03:22;;;;;;;18.27;14.23;;;;;;;;;;5082531;28;21011;-84
2023/11/18 12:05:51;;;;;;;15.53;12.20;;;;;;;;;;5085267;28;20488;-81
2023/11/18 12:08:18;;;;;;;16.40;10.97;;;;;;;;;;5076385;28;20456;-81
2023/11/18 12:10:52;;;;;;;16.20;12.57;;;;;;;;;;5085907;28;20451;-82
2023/11/18 12:13:19;;;;;;;17.40;11.03;;;;;;;;;;5085166;28;20522;-82
2023/11/18 12:15:48;;;;;;;14.80;11.53;;;;;;;;;;5083042;28;20450;-82
2023/11/18 12:18:17;;;;;;;19.13;12.47;;;;;;;;;;5078261;28;20471;-82
2023/11/18 12:20:47;;;;;;;16.20;12.13;;;;;;;;;;5081872;28;20448;-82
2023/11/18 12:23:15;;;;;;;15.40;12.20;;;;;;;;;;5083284;28;20463;-81
2023/11/18 12:25:42;;;;;;;15.30;11.90;;;;;;;;;;5086237;28;20732;-81
2023/11/18 12:28:14;;;;;;;22.27;14.53;;;;;;;;;;5092704;28;20455;-81
2023/11/18 12:30:52;;;;;;;17.27;12.00;;;;;;;;;;5087925;28;20485;-82
2023/11/18 12:33:22;;;;;;;13.80;11.27;;;;;;;;;;5078331;28;20456;-83
2023/11/18 12:36:07;;;;;;;15.50;12.10;;;;;;;;;;5082466;28;20452;-80
2023/11/18 12:38:49;;;;;;;16.50;11.40;;;;;;;;;;5082764;28;20451;-77
2023/11/18 12:41:27;;;;;;;18.53;12.70;;;;;;;;;;5075834;28;20526;-77
2023/11/18 12:44:02;;;;;;;16.90;11.83;;;;;;;;;;5084757;28;20448;-78
2023/11/18 12:46:50;;;;;;;17.70;11.47;;;;;;;;;;5079903;28;20459;-82
2023/11/18 12:49:19;;;;;;;14.97;11.27;;;;;;;;;;5076443;28;20464;-81
2023/11/18 12:51:48;;;;;;;16.03;11.57;;;;;;;;;;5082018;28;20456;-82
2023/11/18 12:54:18;;;;;;;14.73;11.57;;;;;;;;;;5079562;28;20449;-81
2023/11/18 12:56:48;;;;;;;17.00;10.60;;;;;;;;;;5081260;28;20497;-78
2023/11/18 12:59:17;;;;;;;14.50;9.90;;;;;;;;;;5079603;28;20466;-78
2023/11/18 13:01:51;;;;;;;12.40;9.87;;;;;;;;;;5083605;28;20464;-81
2023/11/18 13:04:17;;;;;;;13.77;9.30;;;;;;;;;;5080242;28;20452;-81
2023/11/18 13:06:44;;;;;;;14.77;8.63;;;;;;;;;;5079811;28;20482;-80
2023/11/18 13:09:11;;;;;;;13.00;9.83;;;;;;;;;;5076967;28;20456;-81
2023/11/18 13:11:38;;;;;;;10.83;7.20;;;;;;;;;;5078748;28;20475;-81
2023/11/18 13:14:07;;;;;;;15.90;8.47;;;;;;;;;;5080694;28;20451;-81
2023/11/18 13:16:35;;;;;;;12.93;8.47;;;;;;;;;;5080122;28;20522;-81
2023/11/18 13:19:03;;;;;;;9.40;7.27;;;;;;;;;;5082402;28;20487;-81
2023/11/18 13:21:31;;;;;;;11.27;7.10;;;;;;;;;;5081050;28;20451;-81
2023/11/18 13:23:58;;;;;;;14.00;7.87;;;;;;;;;;5080220;28;20523;-78
2023/11/18 13:26:24;;;;;;;11.20;8.43;;;;;;;;;;5078570;28;20511;-77
2023/11/18 13:28:50;;;;;;;11.47;7.40;;;;;;;;;;5077385;28;20468;-77
2023/11/18 13:31:19;;;;;;;10.60;7.67;;;;;;;;;;5080203;28;20487;-78
2023/11/18 13:33:48;;;;;;;13.27;8.43;;;;;;;;;;5077788;28;20460;-77
2023/11/18 13:36:15;;;;;;;14.20;8.20;;;;;;;;;;5081326;28;20520;-80
2023/11/18 13:38:43;;;;;;;9.17;7.60;;;;;;;;;;5073481;28;20509;-81
2023/11/18 13:41:13;;;;;;;10.83;7.40;;;;;;;;;;5080534;28;20445;-77
2023/11/18 13:43:42;;;;;;;11.50;7.43;;;;;;;;;;5081604;28;20470;-77
2023/11/18 13:46:12;;;;;;;8.57;6.50;;;;;;;;;;5079430;28;20480;-81
2023/11/18 13:48:40;;;;;;;7.97;6.20;;;;;;;;;;5072123;28;20488;-78
2023/11/18 13:51:08;;;;;;;9.33;8.00;;;;;;;;;;5078198;28;20511;-77
2023/11/18 13:53:34;;;;;;;11.70;7.73;;;;;;;;;;5080173;28;20522;-80
2023/11/18 13:56:00;;;;;;;10.93;7.30;;;;;;;;;;5081464;28;20451;-81
2023/11/18 13:58:28;;;;;;;9.37;7.20;;;;;;;;;;5075811;28;20523;-81
2023/11/18 14:00:55;;;;;;;11.57;6.93;;;;;;;;;;5079591;28;20462;-79
2023/11/18 14:03:23;;;;;;;9.93;6.47;;;;;;;;;;5079319;28;20456;-80
2023/11/18 14:05:55;;;;;;;8.57;7.03;;;;;;;;;;5079708;28;20583;-78
2023/11/18 14:08:22;;;;;;;14.00;7.80;;;;;;;;;;5076232;28;20472;-78
2023/11/18 14:10:49;;;;;;;9.50;7.40;;;;;;;;;;5080538;28;20495;-80
2023/11/18 14:13:17;;;;;;;8.63;5.50;;;;;;;;;;5081464;28;20466;-76
2023/11/18 14:15:45;;;;;;;15.23;5.93;;;;;;;;;;5075300;28;20482;-78
2023/11/18 14:18:13;;;;;;;9.97;7.10;;;;;;;;;;5081789;28;20461;-78
2023/11/18 14:20:39;;;;;;;9.20;5.67;;;;;;;;;;5078118;28;20456;-78
2023/11/18 14:23:08;;;;;;;7.70;5.90;;;;;;;;;;5081034;28;20483;-77